sensor_id;sensor_type;location;lat;lon;timestamp;P1;durP1;ratioP1;P2;durP2;ratioP2
3274;SDS011;1649;53.672;10.064;2023-07-16T00:00:52;7.23;;;2.60;;
3274;SDS011;1649;53.672;10.064;2023-07-16T00:03:17;8.67;;;2.10;;
3274;SDS011;1649;53.672;10.064;2023-07-16T00:05:43;6.47;;;2.40;;
3274;SDS011;1649;53.672;10.064;2023-07-16T00:08:08;8.63;;;2.60;;
3274;SDS011;1649;53.672;10.064;2023-07-16T00:10:34;5.93;;;2.80;;
3274;SDS011;1649;53.672;10.064;2023-07-16T00:13:01;6.17;;;2.83;;
3274;SDS011;1649;53.672;10.064;2023-07-16T00:15:28;6.33;;;2.17;;
3274;SDS011;1649;53.672;10.064;2023-07-16T00:17:54;5.67;;;2.60;;
3274;SDS011;1649;53.672;10.064;2023-07-16T00:20:20;8.63;;;2.97;;
3274;SDS011;1649;53.672;10.064;2023-07-16T00:22:45;5.97;;;2.80;;
3274;SDS011;1649;53.672;10.064;2023-07-16T00:25:11;5.97;;;2.80;;
3274;SDS011;1649;53.672;10.064;2023-07-16T00:27:37;6.70;;;2.80;;
3274;SDS011;1649;53.672;10.064;2023-07-16T00:30:03;5.77;;;2.90;;
3274;SDS011;1649;53.672;10.064;2023-07-16T00:32:29;7.37;;;3.10;;
3274;SDS011;1649;53.672;10.064;2023-07-16T00:34:54;7.10;;;3.47;;
3274;SDS011;1649;53.672;10.064;2023-07-16T00:37:20;5.33;;;2.90;;
3274;SDS011;1649;53.672;10.064;2023-07-16T00:39:45;7.10;;;3.07;;
3274;SDS011;1649;53.672;10.064;2023-07-16T00:42:11;6.30;;;2.83;;
3274;SDS011;1649;53.672;10.064;2023-07-16T00:44:36;5.87;;;2.93;;
3274;SDS011;1649;53.672;10.064;2023-07-16T00:47:02;7.80;;;3.43;;
3274;SDS011;1649;53.672;10.064;2023-07-16T00:49:27;6.90;;;3.40;;
3274;SDS011;1649;53.672;10.064;2023-07-16T00:51:54;7.43;;;3.30;;
3274;SDS011;1649;53.672;10.064;2023-07-16T00:54:20;5.60;;;3.10;;
3274;SDS011;1649;53.672;10.064;2023-07-16T00:56:45;6.40;;;3.30;;
3274;SDS011;1649;53.672;10.064;2023-07-16T00:59:11;8.43;;;3.37;;
3274;SDS011;1649;53.672;10.064;2023-07-16T01:01:37;8.47;;;3.50;;
3274;SDS011;1649;53.672;10.064;2023-07-16T01:04:04;8.93;;;3.60;;
3274;SDS011;1649;53.672;10.064;2023-07-16T01:06:51;6.50;;;3.43;;
3274;SDS011;1649;53.672;10.064;2023-07-16T01:09:17;6.67;;;3.20;;
3274;SDS011;1649;53.672;10.064;2023-07-16T01:11:44;8.00;;;3.13;;
3274;SDS011;1649;53.672;10.064;2023-07-16T01:14:10;7.83;;;3.50;;
3274;SDS011;1649;53.672;10.064;2023-07-16T01:16:38;6.20;;;2.90;;
3274;SDS011;1649;53.672;10.064;2023-07-16T01:19:06;7.73;;;3.13;;
3274;SDS011;1649;53.672;10.064;2023-07-16T01:21:59;6.93;;;3.30;;
3274;SDS011;1649;53.672;10.064;2023-07-16T01:30:02;5.40;;;2.87;;
3274;SDS011;1649;53.672;10.064;2023-07-16T01:32:32;6.57;;;3.27;;
3274;SDS011;1649;53.672;10.064;2023-07-16T01:34:58;10.87;;;3.10;;
3274;SDS011;1649;53.672;10.064;2023-07-16T01:37:24;5.83;;;3.03;;
3274;SDS011;1649;53.672;10.064;2023-07-16T01:39:50;5.43;;;2.90;;
3274;SDS011;1649;53.672;10.064;2023-07-16T01:42:16;6.07;;;3.07;;
3274;SDS011;1649;53.672;10.064;2023-07-16T01:44:41;5.90;;;2.90;;
3274;SDS011;1649;53.672;10.064;2023-07-16T01:47:11;6.80;;;2.90;;
3274;SDS011;1649;53.672;10.064;2023-07-16T01:49:56;5.57;;;2.60;;
3274;SDS011;1649;53.672;10.064;2023-07-16T01:52:22;6.73;;;3.00;;
3274;SDS011;1649;53.672;10.064;2023-07-16T01:54:48;6.70;;;3.17;;
3274;SDS011;1649;53.672;10.064;2023-07-16T01:57:13;11.37;;;3.30;;
3274;SDS011;1649;53.672;10.064;2023-07-16T01:59:39;6.00;;;3.20;;
3274;SDS011;1649;53.672;10.064;2023-07-16T02:02:04;10.53;;;3.27;;
3274;SDS011;1649;53.672;10.064;2023-07-16T02:04:30;7.03;;;2.77;;
3274;SDS011;1649;53.672;10.064;2023-07-16T02:06:55;7.50;;;2.90;;
3274;SDS011;1649;53.672;10.064;2023-07-16T02:09:21;6.63;;;2.80;;
3274;SDS011;1649;53.672;10.064;2023-07-16T02:11:47;6.17;;;3.10;;
3274;SDS011;1649;53.672;10.064;2023-07-16T02:14:12;6.20;;;3.20;;
3274;SDS011;1649;53.672;10.064;2023-07-16T02:16:39;7.30;;;2.97;;
3274;SDS011;1649;53.672;10.064;2023-07-16T02:19:04;7.63;;;3.00;;
3274;SDS011;1649;53.672;10.064;2023-07-16T02:21:30;5.20;;;2.57;;
3274;SDS011;1649;53.672;10.064;2023-07-16T02:23:55;7.37;;;3.03;;
3274;SDS011;1649;53.672;10.064;2023-07-16T02:26:21;7.30;;;3.30;;
3274;SDS011;1649;53.672;10.064;2023-07-16T02:28:46;6.53;;;2.90;;
3274;SDS011;1649;53.672;10.064;2023-07-16T02:31:12;9.03;;;2.80;;
3274;SDS011;1649;53.672;10.064;2023-07-16T02:33:37;7.67;;;3.10;;
3274;SDS011;1649;53.672;10.064;2023-07-16T02:36:03;5.33;;;2.67;;
3274;SDS011;1649;53.672;10.064;2023-07-16T02:38:29;5.80;;;2.93;;
3274;SDS011;1649;53.672;10.064;2023-07-16T02:40:54;6.17;;;2.87;;
3274;SDS011;1649;53.672;10.064;2023-07-16T02:43:20;6.60;;;3.13;;
3274;SDS011;1649;53.672;10.064;2023-07-16T02:45:45;8.37;;;3.27;;
3274;SDS011;1649;53.672;10.064;2023-07-16T02:48:11;8.83;;;3.20;;
3274;SDS011;1649;53.672;10.064;2023-07-16T02:50:36;7.00;;;3.10;;
3274;SDS011;1649;53.672;10.064;2023-07-16T02:53:06;6.23;;;2.87;;
3274;SDS011;1649;53.672;10.064;2023-07-16T02:55:32;6.93;;;2.77;;
3274;SDS011;1649;53.672;10.064;2023-07-16T02:57:59;5.63;;;2.77;;
3274;SDS011;1649;53.672;10.064;2023-07-16T03:00:27;5.83;;;2.80;;
3274;SDS011;1649;53.672;10.064;2023-07-16T03:02:53;7.63;;;3.50;;
3274;SDS011;1649;53.672;10.064;2023-07-16T03:05:18;9.23;;;3.20;;
3274;SDS011;1649;53.672;10.064;2023-07-16T03:07:44;7.50;;;3.53;;
3274;SDS011;1649;53.672;10.064;2023-07-16T03:10:09;7.93;;;3.30;;
3274;SDS011;1649;53.672;10.064;2023-07-16T03:12:35;6.10;;;3.17;;
3274;SDS011;1649;53.672;10.064;2023-07-16T03:15:00;6.20;;;3.03;;
3274;SDS011;1649;53.672;10.064;2023-07-16T03:17:26;7.27;;;3.10;;
3274;SDS011;1649;53.672;10.064;2023-07-16T03:19:51;8.03;;;3.00;;
3274;SDS011;1649;53.672;10.064;2023-07-16T03:22:17;7.07;;;2.90;;
3274;SDS011;1649;53.672;10.064;2023-07-16T03:24:42;7.80;;;2.93;;
3274;SDS011;1649;53.672;10.064;2023-07-16T03:27:08;8.43;;;2.80;;
3274;SDS011;1649;53.672;10.064;2023-07-16T03:29:33;6.50;;;3.00;;
3274;SDS011;1649;53.672;10.064;2023-07-16T03:31:59;6.77;;;2.63;;
3274;SDS011;1649;53.672;10.064;2023-07-16T03:34:25;6.07;;;2.70;;
3274;SDS011;1649;53.672;10.064;2023-07-16T03:36:50;6.10;;;3.13;;
3274;SDS011;1649;53.672;10.064;2023-07-16T03:39:16;9.40;;;2.97;;
3274;SDS011;1649;53.672;10.064;2023-07-16T03:41:41;5.90;;;2.70;;
3274;SDS011;1649;53.672;10.064;2023-07-16T03:44:07;6.70;;;2.70;;
3274;SDS011;1649;53.672;10.064;2023-07-16T03:46:32;7.70;;;2.87;;
3274;SDS011;1649;53.672;10.064;2023-07-16T03:48:58;6.27;;;2.90;;
3274;SDS011;1649;53.672;10.064;2023-07-16T03:51:24;5.33;;;2.63;;
3274;SDS011;1649;53.672;10.064;2023-07-16T03:53:49;5.53;;;2.80;;
3274;SDS011;1649;53.672;10.064;2023-07-16T03:56:15;6.70;;;3.27;;
3274;SDS011;1649;53.672;10.064;2023-07-16T03:58:40;6.57;;;2.70;;
3274;SDS011;1649;53.672;10.064;2023-07-16T04:01:06;5.83;;;2.60;;
3274;SDS011;1649;53.672;10.064;2023-07-16T04:03:31;7.30;;;3.10;;
3274;SDS011;1649;53.672;10.064;2023-07-16T04:06:04;10.20;;;3.43;;
3274;SDS011;1649;53.672;10.064;2023-07-16T04:08:30;8.13;;;3.40;;
3274;SDS011;1649;53.672;10.064;2023-07-16T04:10:56;6.00;;;2.90;;
3274;SDS011;1649;53.672;10.064;2023-07-16T04:13:21;7.07;;;3.13;;
3274;SDS011;1649;53.672;10.064;2023-07-16T04:15:47;7.40;;;3.13;;
3274;SDS011;1649;53.672;10.064;2023-07-16T04:18:12;6.43;;;3.33;;
3274;SDS011;1649;53.672;10.064;2023-07-16T04:20:38;4.90;;;2.70;;
3274;SDS011;1649;53.672;10.064;2023-07-16T04:23:03;8.33;;;3.17;;
3274;SDS011;1649;53.672;10.064;2023-07-16T04:25:29;6.63;;;3.30;;
3274;SDS011;1649;53.672;10.064;2023-07-16T04:27:55;6.07;;;2.90;;
3274;SDS011;1649;53.672;10.064;2023-07-16T04:30:21;11.30;;;3.37;;
3274;SDS011;1649;53.672;10.064;2023-07-16T04:32:46;7.10;;;3.33;;
3274;SDS011;1649;53.672;10.064;2023-07-16T04:35:12;6.23;;;2.60;;
3274;SDS011;1649;53.672;10.064;2023-07-16T04:37:37;6.47;;;3.30;;
3274;SDS011;1649;53.672;10.064;2023-07-16T04:40:03;10.37;;;3.13;;
3274;SDS011;1649;53.672;10.064;2023-07-16T04:42:29;7.50;;;3.20;;
3274;SDS011;1649;53.672;10.064;2023-07-16T04:44:54;6.53;;;3.37;;
3274;SDS011;1649;53.672;10.064;2023-07-16T04:47:20;5.20;;;2.97;;
3274;SDS011;1649;53.672;10.064;2023-07-16T04:49:45;8.33;;;3.20;;
3274;SDS011;1649;53.672;10.064;2023-07-16T04:52:11;5.97;;;2.90;;
3274;SDS011;1649;53.672;10.064;2023-07-16T04:54:37;8.57;;;3.50;;
3274;SDS011;1649;53.672;10.064;2023-07-16T04:57:05;6.30;;;2.90;;
3274;SDS011;1649;53.672;10.064;2023-07-16T04:59:31;7.37;;;3.00;;
3274;SDS011;1649;53.672;10.064;2023-07-16T05:01:57;5.50;;;2.60;;
3274;SDS011;1649;53.672;10.064;2023-07-16T05:04:22;6.90;;;2.77;;
3274;SDS011;1649;53.672;10.064;2023-07-16T05:06:47;5.50;;;2.60;;
3274;SDS011;1649;53.672;10.064;2023-07-16T05:09:13;5.53;;;2.53;;
3274;SDS011;1649;53.672;10.064;2023-07-16T05:11:39;7.97;;;3.03;;
3274;SDS011;1649;53.672;10.064;2023-07-16T05:14:04;6.83;;;3.03;;
3274;SDS011;1649;53.672;10.064;2023-07-16T05:16:30;7.00;;;3.00;;
3274;SDS011;1649;53.672;10.064;2023-07-16T05:18:55;6.93;;;3.07;;
3274;SDS011;1649;53.672;10.064;2023-07-16T05:21:21;5.87;;;2.70;;
3274;SDS011;1649;53.672;10.064;2023-07-16T05:23:46;7.50;;;3.00;;
3274;SDS011;1649;53.672;10.064;2023-07-16T05:26:12;7.93;;;2.70;;
3274;SDS011;1649;53.672;10.064;2023-07-16T05:28:37;5.73;;;2.57;;
3274;SDS011;1649;53.672;10.064;2023-07-16T05:31:03;7.90;;;3.10;;
3274;SDS011;1649;53.672;10.064;2023-07-16T05:33:28;7.07;;;2.67;;
3274;SDS011;1649;53.672;10.064;2023-07-16T05:35:54;5.87;;;2.37;;
3274;SDS011;1649;53.672;10.064;2023-07-16T05:38:20;5.60;;;2.70;;
3274;SDS011;1649;53.672;10.064;2023-07-16T05:40:46;7.83;;;2.80;;
3274;SDS011;1649;53.672;10.064;2023-07-16T05:43:11;6.60;;;2.80;;
3274;SDS011;1649;53.672;10.064;2023-07-16T05:45:38;5.33;;;2.40;;
3274;SDS011;1649;53.672;10.064;2023-07-16T05:48:03;7.00;;;3.00;;
3274;SDS011;1649;53.672;10.064;2023-07-16T05:50:29;5.50;;;2.30;;
3274;SDS011;1649;53.672;10.064;2023-07-16T05:52:54;6.13;;;2.73;;
3274;SDS011;1649;53.672;10.064;2023-07-16T05:55:20;6.60;;;2.73;;
3274;SDS011;1649;53.672;10.064;2023-07-16T05:57:45;8.20;;;2.63;;
3274;SDS011;1649;53.672;10.064;2023-07-16T06:00:11;8.77;;;3.40;;
3274;SDS011;1649;53.672;10.064;2023-07-16T06:02:38;7.80;;;2.60;;
3274;SDS011;1649;53.672;10.064;2023-07-16T06:05:04;6.20;;;2.50;;
3274;SDS011;1649;53.672;10.064;2023-07-16T06:07:30;9.73;;;2.80;;
3274;SDS011;1649;53.672;10.064;2023-07-16T06:09:56;7.70;;;2.80;;
3274;SDS011;1649;53.672;10.064;2023-07-16T06:12:22;7.13;;;2.60;;
3274;SDS011;1649;53.672;10.064;2023-07-16T06:14:48;11.73;;;3.17;;
3274;SDS011;1649;53.672;10.064;2023-07-16T06:17:13;7.77;;;2.80;;
3274;SDS011;1649;53.672;10.064;2023-07-16T06:19:39;7.27;;;2.50;;
3274;SDS011;1649;53.672;10.064;2023-07-16T06:22:04;6.53;;;2.63;;
3274;SDS011;1649;53.672;10.064;2023-07-16T06:24:30;7.63;;;2.40;;
3274;SDS011;1649;53.672;10.064;2023-07-16T06:26:55;6.83;;;2.23;;
3274;SDS011;1649;53.672;10.064;2023-07-16T06:29:21;8.47;;;2.63;;
3274;SDS011;1649;53.672;10.064;2023-07-16T06:31:59;5.63;;;1.97;;
3274;SDS011;1649;53.672;10.064;2023-07-16T06:34:24;7.43;;;2.70;;
3274;SDS011;1649;53.672;10.064;2023-07-16T06:36:50;7.37;;;2.43;;
3274;SDS011;1649;53.672;10.064;2023-07-16T06:39:16;8.23;;;2.83;;
3274;SDS011;1649;53.672;10.064;2023-07-16T06:41:42;8.10;;;2.60;;
3274;SDS011;1649;53.672;10.064;2023-07-16T06:44:07;7.47;;;2.30;;
3274;SDS011;1649;53.672;10.064;2023-07-16T06:46:33;5.50;;;2.63;;
3274;SDS011;1649;53.672;10.064;2023-07-16T06:48:58;8.07;;;2.57;;
3274;SDS011;1649;53.672;10.064;2023-07-16T06:51:24;8.63;;;3.40;;
3274;SDS011;1649;53.672;10.064;2023-07-16T06:53:49;8.13;;;3.17;;
3274;SDS011;1649;53.672;10.064;2023-07-16T06:56:15;9.20;;;3.47;;
3274;SDS011;1649;53.672;10.064;2023-07-16T06:58:40;6.57;;;3.80;;
3274;SDS011;1649;53.672;10.064;2023-07-16T07:01:06;11.15;;;3.65;;
3274;SDS011;1649;53.672;10.064;2023-07-16T07:03:31;8.87;;;3.30;;
3274;SDS011;1649;53.672;10.064;2023-07-16T07:06:03;13.13;;;3.20;;
3274;SDS011;1649;53.672;10.064;2023-07-16T07:08:29;7.77;;;3.30;;
3274;SDS011;1649;53.672;10.064;2023-07-16T07:10:54;9.90;;;3.50;;
3274;SDS011;1649;53.672;10.064;2023-07-16T07:13:20;6.37;;;2.90;;
3274;SDS011;1649;53.672;10.064;2023-07-16T07:15:45;7.80;;;3.00;;
3274;SDS011;1649;53.672;10.064;2023-07-16T07:18:11;8.90;;;3.53;;
3274;SDS011;1649;53.672;10.064;2023-07-16T07:20:36;8.70;;;3.20;;
3274;SDS011;1649;53.672;10.064;2023-07-16T07:23:02;10.43;;;3.57;;
3274;SDS011;1649;53.672;10.064;2023-07-16T07:25:30;8.60;;;3.30;;
3274;SDS011;1649;53.672;10.064;2023-07-16T07:27:55;9.90;;;3.37;;
3274;SDS011;1649;53.672;10.064;2023-07-16T07:30:21;7.60;;;2.83;;
3274;SDS011;1649;53.672;10.064;2023-07-16T07:32:46;11.67;;;3.13;;
3274;SDS011;1649;53.672;10.064;2023-07-16T07:35:12;6.93;;;2.73;;
3274;SDS011;1649;53.672;10.064;2023-07-16T07:37:37;9.60;;;2.80;;
3274;SDS011;1649;53.672;10.064;2023-07-16T07:40:03;6.77;;;2.70;;
3274;SDS011;1649;53.672;10.064;2023-07-16T07:42:29;8.63;;;3.00;;
3274;SDS011;1649;53.672;10.064;2023-07-16T07:44:54;7.13;;;2.57;;
3274;SDS011;1649;53.672;10.064;2023-07-16T07:47:20;8.70;;;3.13;;
3274;SDS011;1649;53.672;10.064;2023-07-16T07:49:46;9.07;;;2.90;;
3274;SDS011;1649;53.672;10.064;2023-07-16T07:52:11;7.57;;;2.60;;
3274;SDS011;1649;53.672;10.064;2023-07-16T07:54:36;6.37;;;2.57;;
3274;SDS011;1649;53.672;10.064;2023-07-16T07:57:03;8.70;;;3.00;;
3274;SDS011;1649;53.672;10.064;2023-07-16T07:59:29;10.20;;;3.10;;
3274;SDS011;1649;53.672;10.064;2023-07-16T08:01:56;8.30;;;2.77;;
3274;SDS011;1649;53.672;10.064;2023-07-16T08:04:22;6.47;;;2.40;;
3274;SDS011;1649;53.672;10.064;2023-07-16T08:06:48;7.20;;;3.00;;
3274;SDS011;1649;53.672;10.064;2023-07-16T08:09:14;10.67;;;2.93;;
3274;SDS011;1649;53.672;10.064;2023-07-16T08:11:40;7.07;;;2.77;;
3274;SDS011;1649;53.672;10.064;2023-07-16T08:14:05;9.30;;;2.90;;
3274;SDS011;1649;53.672;10.064;2023-07-16T08:16:31;7.67;;;2.93;;
3274;SDS011;1649;53.672;10.064;2023-07-16T08:18:56;9.60;;;2.57;;
3274;SDS011;1649;53.672;10.064;2023-07-16T08:21:21;7.33;;;2.30;;
3274;SDS011;1649;53.672;10.064;2023-07-16T08:23:48;6.60;;;2.27;;
3274;SDS011;1649;53.672;10.064;2023-07-16T08:26:14;8.93;;;2.90;;
3274;SDS011;1649;53.672;10.064;2023-07-16T08:28:40;5.50;;;2.60;;
3274;SDS011;1649;53.672;10.064;2023-07-16T08:31:05;8.23;;;2.60;;
3274;SDS011;1649;53.672;10.064;2023-07-16T08:33:30;5.97;;;2.63;;
3274;SDS011;1649;53.672;10.064;2023-07-16T08:35:56;7.50;;;2.40;;
3274;SDS011;1649;53.672;10.064;2023-07-16T08:38:21;9.77;;;1.97;;
3274;SDS011;1649;53.672;10.064;2023-07-16T08:40:47;6.73;;;2.30;;
3274;SDS011;1649;53.672;10.064;2023-07-16T08:43:14;4.60;;;2.10;;
3274;SDS011;1649;53.672;10.064;2023-07-16T08:45:41;7.87;;;2.33;;
3274;SDS011;1649;53.672;10.064;2023-07-16T08:48:10;8.03;;;2.03;;
3274;SDS011;1649;53.672;10.064;2023-07-16T08:50:36;4.90;;;2.27;;
3274;SDS011;1649;53.672;10.064;2023-07-16T08:53:05;5.20;;;2.20;;
3274;SDS011;1649;53.672;10.064;2023-07-16T08:55:32;5.70;;;2.20;;
3274;SDS011;1649;53.672;10.064;2023-07-16T08:57:58;5.90;;;2.63;;
3274;SDS011;1649;53.672;10.064;2023-07-16T09:00:27;6.77;;;2.77;;
3274;SDS011;1649;53.672;10.064;2023-07-16T09:02:53;9.00;;;3.10;;
3274;SDS011;1649;53.672;10.064;2023-07-16T09:05:21;7.10;;;3.23;;
3274;SDS011;1649;53.672;10.064;2023-07-16T09:07:48;8.10;;;3.50;;
3274;SDS011;1649;53.672;10.064;2023-07-16T09:10:13;13.17;;;3.93;;
3274;SDS011;1649;53.672;10.064;2023-07-16T09:12:42;9.60;;;3.40;;
3274;SDS011;1649;53.672;10.064;2023-07-16T09:15:09;10.47;;;4.43;;
3274;SDS011;1649;53.672;10.064;2023-07-16T09:17:35;11.40;;;5.63;;
3274;SDS011;1649;53.672;10.064;2023-07-16T09:20:03;7.80;;;4.50;;
3274;SDS011;1649;53.672;10.064;2023-07-16T09:22:29;9.00;;;5.10;;
3274;SDS011;1649;53.672;10.064;2023-07-16T09:24:54;6.43;;;4.80;;
3274;SDS011;1649;53.672;10.064;2023-07-16T09:27:27;8.60;;;4.23;;
3274;SDS011;1649;53.672;10.064;2023-07-16T09:29:53;7.60;;;4.50;;
3274;SDS011;1649;53.672;10.064;2023-07-16T09:32:19;9.80;;;4.50;;
3274;SDS011;1649;53.672;10.064;2023-07-16T09:34:45;13.83;;;4.50;;
3274;SDS011;1649;53.672;10.064;2023-07-16T09:37:14;9.20;;;4.33;;
3274;SDS011;1649;53.672;10.064;2023-07-16T09:39:39;11.00;;;4.37;;
3274;SDS011;1649;53.672;10.064;2023-07-16T09:42:06;9.80;;;4.53;;
3274;SDS011;1649;53.672;10.064;2023-07-16T09:44:32;6.90;;;4.23;;
3274;SDS011;1649;53.672;10.064;2023-07-16T09:46:59;14.50;;;4.30;;
3274;SDS011;1649;53.672;10.064;2023-07-16T09:49:25;9.77;;;4.20;;
3274;SDS011;1649;53.672;10.064;2023-07-16T09:51:56;6.23;;;3.67;;
3274;SDS011;1649;53.672;10.064;2023-07-16T09:54:21;6.70;;;3.70;;
3274;SDS011;1649;53.672;10.064;2023-07-16T09:56:50;5.93;;;3.50;;
3274;SDS011;1649;53.672;10.064;2023-07-16T09:59:23;9.20;;;3.60;;
3274;SDS011;1649;53.672;10.064;2023-07-16T10:01:52;5.77;;;3.50;;
3274;SDS011;1649;53.672;10.064;2023-07-16T10:04:18;7.13;;;3.87;;
3274;SDS011;1649;53.672;10.064;2023-07-16T10:06:51;8.17;;;3.90;;
3274;SDS011;1649;53.672;10.064;2023-07-16T10:09:31;10.27;;;4.40;;
3274;SDS011;1649;53.672;10.064;2023-07-16T10:12:15;8.33;;;3.70;;
3274;SDS011;1649;53.672;10.064;2023-07-16T10:14:45;10.50;;;4.33;;
3274;SDS011;1649;53.672;10.064;2023-07-16T10:17:25;8.90;;;4.40;;
3274;SDS011;1649;53.672;10.064;2023-07-16T10:20:01;8.43;;;4.87;;
3274;SDS011;1649;53.672;10.064;2023-07-16T10:22:34;6.23;;;3.37;;
3274;SDS011;1649;53.672;10.064;2023-07-16T10:25:07;8.17;;;3.70;;
3274;SDS011;1649;53.672;10.064;2023-07-16T10:27:42;7.27;;;3.87;;
3274;SDS011;1649;53.672;10.064;2023-07-16T10:30:08;7.40;;;3.77;;
3274;SDS011;1649;53.672;10.064;2023-07-16T10:32:33;8.43;;;4.10;;
3274;SDS011;1649;53.672;10.064;2023-07-16T10:34:59;10.03;;;4.17;;
3274;SDS011;1649;53.672;10.064;2023-07-16T10:37:25;7.10;;;3.17;;
3274;SDS011;1649;53.672;10.064;2023-07-16T10:39:52;8.30;;;3.40;;
3274;SDS011;1649;53.672;10.064;2023-07-16T10:42:19;7.30;;;3.67;;
3274;SDS011;1649;53.672;10.064;2023-07-16T10:44:48;8.03;;;2.90;;
3274;SDS011;1649;53.672;10.064;2023-07-16T10:47:18;7.20;;;3.23;;
3274;SDS011;1649;53.672;10.064;2023-07-16T10:49:48;9.57;;;3.13;;
3274;SDS011;1649;53.672;10.064;2023-07-16T10:52:14;18.73;;;3.40;;
3274;SDS011;1649;53.672;10.064;2023-07-16T10:54:40;7.93;;;2.50;;
3274;SDS011;1649;53.672;10.064;2023-07-16T10:57:05;9.07;;;3.10;;
3274;SDS011;1649;53.672;10.064;2023-07-16T10:59:31;7.23;;;3.10;;
3274;SDS011;1649;53.672;10.064;2023-07-16T11:01:57;13.33;;;3.30;;
3274;SDS011;1649;53.672;10.064;2023-07-16T11:04:23;9.63;;;3.27;;
3274;SDS011;1649;53.672;10.064;2023-07-16T11:06:51;6.70;;;3.23;;
3274;SDS011;1649;53.672;10.064;2023-07-16T11:09:17;9.30;;;3.20;;
3274;SDS011;1649;53.672;10.064;2023-07-16T11:11:42;7.53;;;3.80;;
3274;SDS011;1649;53.672;10.064;2023-07-16T11:14:08;6.10;;;2.90;;
3274;SDS011;1649;53.672;10.064;2023-07-16T11:16:34;8.40;;;3.70;;
3274;SDS011;1649;53.672;10.064;2023-07-16T11:19:03;7.77;;;3.50;;
3274;SDS011;1649;53.672;10.064;2023-07-16T11:21:33;7.80;;;3.33;;
3274;SDS011;1649;53.672;10.064;2023-07-16T11:24:08;7.17;;;3.30;;
3274;SDS011;1649;53.672;10.064;2023-07-16T11:26:35;10.37;;;4.27;;
3274;SDS011;1649;53.672;10.064;2023-07-16T11:29:01;7.77;;;3.63;;
3274;SDS011;1649;53.672;10.064;2023-07-16T11:31:26;7.67;;;3.67;;
3274;SDS011;1649;53.672;10.064;2023-07-16T11:33:51;13.53;;;3.70;;
3274;SDS011;1649;53.672;10.064;2023-07-16T11:36:17;5.40;;;3.20;;
3274;SDS011;1649;53.672;10.064;2023-07-16T11:38:42;7.50;;;3.40;;
3274;SDS011;1649;53.672;10.064;2023-07-16T11:41:08;9.37;;;3.37;;
3274;SDS011;1649;53.672;10.064;2023-07-16T11:43:34;6.73;;;3.50;;
3274;SDS011;1649;53.672;10.064;2023-07-16T11:46:01;7.30;;;3.70;;
3274;SDS011;1649;53.672;10.064;2023-07-16T11:48:27;9.17;;;3.90;;
3274;SDS011;1649;53.672;10.064;2023-07-16T11:50:53;6.70;;;3.23;;
3274;SDS011;1649;53.672;10.064;2023-07-16T11:53:18;7.53;;;3.10;;
3274;SDS011;1649;53.672;10.064;2023-07-16T11:55:44;5.07;;;2.87;;
3274;SDS011;1649;53.672;10.064;2023-07-16T11:58:09;6.30;;;2.77;;
3274;SDS011;1649;53.672;10.064;2023-07-16T12:00:35;7.57;;;3.03;;
3274;SDS011;1649;53.672;10.064;2023-07-16T12:03:00;5.57;;;2.90;;
3274;SDS011;1649;53.672;10.064;2023-07-16T12:05:26;5.77;;;2.90;;
3274;SDS011;1649;53.672;10.064;2023-07-16T12:07:52;6.03;;;3.20;;
3274;SDS011;1649;53.672;10.064;2023-07-16T12:10:18;6.00;;;2.80;;
3274;SDS011;1649;53.672;10.064;2023-07-16T12:12:45;5.80;;;2.93;;
3274;SDS011;1649;53.672;10.064;2023-07-16T12:15:11;6.30;;;3.40;;
3274;SDS011;1649;53.672;10.064;2023-07-16T12:17:37;6.33;;;3.10;;
3274;SDS011;1649;53.672;10.064;2023-07-16T12:20:02;5.83;;;3.10;;
3274;SDS011;1649;53.672;10.064;2023-07-16T12:22:29;7.10;;;3.50;;
3274;SDS011;1649;53.672;10.064;2023-07-16T12:24:54;7.70;;;3.70;;
3274;SDS011;1649;53.672;10.064;2023-07-16T12:27:20;5.67;;;3.40;;
3274;SDS011;1649;53.672;10.064;2023-07-16T12:29:46;6.70;;;3.00;;
3274;SDS011;1649;53.672;10.064;2023-07-16T12:32:11;9.20;;;3.33;;
3274;SDS011;1649;53.672;10.064;2023-07-16T12:34:37;6.77;;;3.50;;
3274;SDS011;1649;53.672;10.064;2023-07-16T12:37:03;6.70;;;3.20;;
3274;SDS011;1649;53.672;10.064;2023-07-16T12:39:29;7.67;;;3.00;;
3274;SDS011;1649;53.672;10.064;2023-07-16T12:41:54;6.50;;;3.03;;
3274;SDS011;1649;53.672;10.064;2023-07-16T12:44:20;6.33;;;2.83;;
3274;SDS011;1649;53.672;10.064;2023-07-16T12:46:45;9.30;;;2.77;;
3274;SDS011;1649;53.672;10.064;2023-07-16T12:49:11;9.83;;;3.60;;
3274;SDS011;1649;53.672;10.064;2023-07-16T12:51:36;12.80;;;3.50;;
3274;SDS011;1649;53.672;10.064;2023-07-16T12:54:02;8.90;;;3.17;;
3274;SDS011;1649;53.672;10.064;2023-07-16T12:56:27;9.40;;;3.13;;
3274;SDS011;1649;53.672;10.064;2023-07-16T12:58:54;15.20;;;3.47;;
3274;SDS011;1649;53.672;10.064;2023-07-16T13:01:19;11.00;;;3.43;;
3274;SDS011;1649;53.672;10.064;2023-07-16T13:03:45;6.10;;;2.97;;
3274;SDS011;1649;53.672;10.064;2023-07-16T13:06:10;6.80;;;2.67;;
3274;SDS011;1649;53.672;10.064;2023-07-16T13:08:36;8.53;;;3.27;;
3274;SDS011;1649;53.672;10.064;2023-07-16T13:11:01;7.10;;;2.67;;
3274;SDS011;1649;53.672;10.064;2023-07-16T13:13:27;6.03;;;2.50;;
3274;SDS011;1649;53.672;10.064;2023-07-16T13:15:53;6.57;;;2.77;;
3274;SDS011;1649;53.672;10.064;2023-07-16T13:18:18;11.10;;;3.17;;
3274;SDS011;1649;53.672;10.064;2023-07-16T13:20:44;11.50;;;3.40;;
3274;SDS011;1649;53.672;10.064;2023-07-16T13:23:09;6.53;;;2.77;;
3274;SDS011;1649;53.672;10.064;2023-07-16T13:25:35;7.93;;;2.83;;
3274;SDS011;1649;53.672;10.064;2023-07-16T13:28:03;8.07;;;2.87;;
3274;SDS011;1649;53.672;10.064;2023-07-16T13:30:29;9.37;;;2.83;;
3274;SDS011;1649;53.672;10.064;2023-07-16T13:32:55;10.03;;;3.03;;
3274;SDS011;1649;53.672;10.064;2023-07-16T13:35:21;18.93;;;3.60;;
3274;SDS011;1649;53.672;10.064;2023-07-16T13:37:47;11.13;;;3.30;;
3274;SDS011;1649;53.672;10.064;2023-07-16T13:40:13;9.57;;;2.60;;
3274;SDS011;1649;53.672;10.064;2023-07-16T13:42:38;8.80;;;3.20;;
3274;SDS011;1649;53.672;10.064;2023-07-16T13:45:04;9.13;;;3.07;;
3274;SDS011;1649;53.672;10.064;2023-07-16T13:47:31;14.47;;;3.00;;
3274;SDS011;1649;53.672;10.064;2023-07-16T13:49:56;7.07;;;3.00;;
3274;SDS011;1649;53.672;10.064;2023-07-16T13:52:22;15.93;;;3.70;;
3274;SDS011;1649;53.672;10.064;2023-07-16T13:54:47;9.20;;;2.90;;
3274;SDS011;1649;53.672;10.064;2023-07-16T13:57:13;6.80;;;3.07;;
3274;SDS011;1649;53.672;10.064;2023-07-16T13:59:38;12.83;;;3.63;;
3274;SDS011;1649;53.672;10.064;2023-07-16T14:02:04;6.70;;;2.47;;
3274;SDS011;1649;53.672;10.064;2023-07-16T14:04:29;8.20;;;2.90;;
3274;SDS011;1649;53.672;10.064;2023-07-16T14:06:55;8.90;;;2.97;;
3274;SDS011;1649;53.672;10.064;2023-07-16T14:09:21;9.00;;;3.63;;
3274;SDS011;1649;53.672;10.064;2023-07-16T14:11:47;10.63;;;2.53;;
3274;SDS011;1649;53.672;10.064;2023-07-16T14:14:20;9.20;;;3.13;;
3274;SDS011;1649;53.672;10.064;2023-07-16T14:16:46;28.13;;;4.23;;
3274;SDS011;1649;53.672;10.064;2023-07-16T14:19:12;6.57;;;2.77;;
3274;SDS011;1649;53.672;10.064;2023-07-16T14:21:38;6.13;;;2.77;;
3274;SDS011;1649;53.672;10.064;2023-07-16T14:24:04;5.53;;;2.90;;
3274;SDS011;1649;53.672;10.064;2023-07-16T14:26:29;6.50;;;3.27;;
3274;SDS011;1649;53.672;10.064;2023-07-16T14:28:55;7.53;;;2.60;;
3274;SDS011;1649;53.672;10.064;2023-07-16T14:31:21;6.67;;;2.77;;
3274;SDS011;1649;53.672;10.064;2023-07-16T14:33:46;8.00;;;2.60;;
3274;SDS011;1649;53.672;10.064;2023-07-16T14:36:12;7.00;;;3.20;;
3274;SDS011;1649;53.672;10.064;2023-07-16T14:38:37;6.30;;;3.47;;
3274;SDS011;1649;53.672;10.064;2023-07-16T14:41:03;9.03;;;3.50;;
3274;SDS011;1649;53.672;10.064;2023-07-16T14:43:31;6.43;;;2.90;;
3274;SDS011;1649;53.672;10.064;2023-07-16T14:45:56;7.33;;;2.87;;
3274;SDS011;1649;53.672;10.064;2023-07-16T14:48:22;7.30;;;3.23;;
3274;SDS011;1649;53.672;10.064;2023-07-16T14:50:50;8.80;;;3.40;;
3274;SDS011;1649;53.672;10.064;2023-07-16T14:53:16;8.30;;;3.07;;
3274;SDS011;1649;53.672;10.064;2023-07-16T14:55:48;9.10;;;3.37;;
3274;SDS011;1649;53.672;10.064;2023-07-16T14:58:15;10.50;;;3.00;;
3274;SDS011;1649;53.672;10.064;2023-07-16T15:00:42;11.80;;;3.33;;